sensor_id;sensor_type;location;lat;lon;timestamp;P1;durP1;ratioP1;P2;durP2;ratioP2
52898;SDS011;38763;53.096;6.062;2022-09-12T00:01:17;14.23;;;11.50;;
52898;SDS011;38763;53.096;6.062;2022-09-12T00:03:45;18.10;;;12.88;;
52898;SDS011;38763;53.096;6.062;2022-09-12T00:06:13;16.30;;;13.10;;
52898;SDS011;38763;53.096;6.062;2022-09-12T00:08:42;17.52;;;12.60;;
52898;SDS011;38763;53.096;6.062;2022-09-12T00:11:08;16.50;;;12.88;;
52898;SDS011;38763;53.096;6.062;2022-09-12T00:13:35;18.10;;;13.63;;
52898;SDS011;38763;53.096;6.062;2022-09-12T00:16:02;17.25;;;13.15;;
52898;SDS011;38763;53.096;6.062;2022-09-12T00:18:29;16.83;;;12.95;;
52898;SDS011;38763;53.096;6.062;2022-09-12T00:20:55;17.67;;;13.48;;
52898;SDS011;38763;53.096;6.062;2022-09-12T00:23:20;19.42;;;13.57;;
52898;SDS011;38763;53.096;6.062;2022-09-12T00:25:46;16.95;;;13.35;;
52898;SDS011;38763;53.096;6.062;2022-09-12T00:28:13;19.08;;;13.13;;
52898;SDS011;38763;53.096;6.062;2022-09-12T00:30:44;16.23;;;12.80;;
52898;SDS011;38763;53.096;6.062;2022-09-12T00:33:12;16.65;;;13.85;;
52898;SDS011;38763;53.096;6.062;2022-09-12T00:35:48;18.75;;;13.30;;
52898;SDS011;38763;53.096;6.062;2022-09-12T00:38:19;17.85;;;12.98;;
52898;SDS011;38763;53.096;6.062;2022-09-12T00:40:45;14.77;;;11.73;;
52898;SDS011;38763;53.096;6.062;2022-09-12T00:43:12;17.05;;;13.23;;
52898;SDS011;38763;53.096;6.062;2022-09-12T00:45:53;17.50;;;12.85;;
52898;SDS011;38763;53.096;6.062;2022-09-12T00:48:21;15.00;;;12.38;;
52898;SDS011;38763;53.096;6.062;2022-09-12T00:50:54;15.07;;;11.40;;
52898;SDS011;38763;53.096;6.062;2022-09-12T00:53:19;17.42;;;12.15;;
52898;SDS011;38763;53.096;6.062;2022-09-12T00:55:46;15.88;;;12.43;;
52898;SDS011;38763;53.096;6.062;2022-09-12T00:58:19;14.95;;;11.40;;
52898;SDS011;38763;53.096;6.062;2022-09-12T01:00:47;16.40;;;12.30;;
52898;SDS011;38763;53.096;6.062;2022-09-12T01:03:13;16.70;;;11.93;;
52898;SDS011;38763;53.096;6.062;2022-09-12T01:05:42;16.33;;;11.85;;
52898;SDS011;38763;53.096;6.062;2022-09-12T01:08:16;14.90;;;11.98;;
52898;SDS011;38763;53.096;6.062;2022-09-12T01:10:42;16.05;;;11.90;;
52898;SDS011;38763;53.096;6.062;2022-09-12T01:13:08;14.57;;;10.88;;
52898;SDS011;38763;53.096;6.062;2022-09-12T01:15:38;17.65;;;11.60;;
52898;SDS011;38763;53.096;6.062;2022-09-12T01:18:12;15.27;;;11.98;;
52898;SDS011;38763;53.096;6.062;2022-09-12T01:34:21;15.05;;;11.30;;
52898;SDS011;38763;53.096;6.062;2022-09-12T01:37:14;16.52;;;11.43;;
52898;SDS011;38763;53.096;6.062;2022-09-12T01:42:27;16.95;;;10.38;;
52898;SDS011;38763;53.096;6.062;2022-09-12T01:47:24;14.90;;;10.23;;
52898;SDS011;38763;53.096;6.062;2022-09-12T01:50:02;12.95;;;10.05;;
52898;SDS011;38763;53.096;6.062;2022-09-12T01:52:42;15.05;;;10.60;;
52898;SDS011;38763;53.096;6.062;2022-09-12T01:55:20;15.23;;;10.98;;
52898;SDS011;38763;53.096;6.062;2022-09-12T01:57:59;15.02;;;10.55;;
52898;SDS011;38763;53.096;6.062;2022-09-12T02:00:27;14.13;;;9.95;;
52898;SDS011;38763;53.096;6.062;2022-09-12T02:02:56;13.73;;;10.90;;
52898;SDS011;38763;53.096;6.062;2022-09-12T02:05:29;15.63;;;10.13;;
52898;SDS011;38763;53.096;6.062;2022-09-12T02:08:21;14.73;;;10.57;;
52898;SDS011;38763;53.096;6.062;2022-09-12T02:10:55;13.70;;;9.57;;
52898;SDS011;38763;53.096;6.062;2022-09-12T02:13:34;13.30;;;9.93;;
52898;SDS011;38763;53.096;6.062;2022-09-12T02:16:11;16.33;;;10.57;;
52898;SDS011;38763;53.096;6.062;2022-09-12T02:18:43;20.80;;;10.90;;
52898;SDS011;38763;53.096;6.062;2022-09-12T02:21:12;17.27;;;11.73;;
52898;SDS011;38763;53.096;6.062;2022-09-12T02:23:40;14.70;;;10.07;;
52898;SDS011;38763;53.096;6.062;2022-09-12T02:26:12;17.60;;;11.68;;
52898;SDS011;38763;53.096;6.062;2022-09-12T02:28:44;16.65;;;11.10;;
52898;SDS011;38763;53.096;6.062;2022-09-12T02:39:39;21.65;;;12.38;;
52898;SDS011;38763;53.096;6.062;2022-09-12T02:42:05;16.13;;;11.63;;
52898;SDS011;38763;53.096;6.062;2022-09-12T02:44:30;18.02;;;11.95;;
52898;SDS011;38763;53.096;6.062;2022-09-12T02:47:11;15.98;;;11.88;;
52898;SDS011;38763;53.096;6.062;2022-09-12T02:49:42;18.80;;;12.30;;
52898;SDS011;38763;53.096;6.062;2022-09-12T02:52:08;17.75;;;12.10;;
52898;SDS011;38763;53.096;6.062;2022-09-12T02:54:34;17.88;;;12.50;;
52898;SDS011;38763;53.096;6.062;2022-09-12T02:57:01;17.20;;;12.18;;
52898;SDS011;38763;53.096;6.062;2022-09-12T02:59:27;19.38;;;12.57;;
52898;SDS011;38763;53.096;6.062;2022-09-12T03:20:18;20.50;;;13.00;;
52898;SDS011;38763;53.096;6.062;2022-09-12T03:22:54;21.27;;;13.27;;
52898;SDS011;38763;53.096;6.062;2022-09-12T03:28:01;21.33;;;13.60;;
52898;SDS011;38763;53.096;6.062;2022-09-12T03:30:37;20.70;;;14.20;;
52898;SDS011;38763;53.096;6.062;2022-09-12T03:33:15;23.67;;;14.25;;
52898;SDS011;38763;53.096;6.062;2022-09-12T03:35:43;21.08;;;14.38;;
52898;SDS011;38763;53.096;6.062;2022-09-12T03:38:09;20.60;;;14.10;;
52898;SDS011;38763;53.096;6.062;2022-09-12T03:40:35;23.52;;;14.35;;
52898;SDS011;38763;53.096;6.062;2022-09-12T03:43:02;22.05;;;14.05;;
52898;SDS011;38763;53.096;6.062;2022-09-12T03:45:29;23.35;;;14.82;;
52898;SDS011;38763;53.096;6.062;2022-09-12T03:47:55;23.02;;;14.40;;
52898;SDS011;38763;53.096;6.062;2022-09-12T03:50:20;24.30;;;14.90;;
52898;SDS011;38763;53.096;6.062;2022-09-12T03:52:46;23.52;;;14.88;;
52898;SDS011;38763;53.096;6.062;2022-09-12T03:55:12;25.85;;;15.98;;
52898;SDS011;38763;53.096;6.062;2022-09-12T03:57:37;24.55;;;15.77;;
52898;SDS011;38763;53.096;6.062;2022-09-12T04:00:04;23.88;;;15.93;;
52898;SDS011;38763;53.096;6.062;2022-09-12T04:02:32;26.42;;;16.60;;
52898;SDS011;38763;53.096;6.062;2022-09-12T04:04:58;25.13;;;17.25;;
52898;SDS011;38763;53.096;6.062;2022-09-12T04:07:24;30.15;;;18.77;;
52898;SDS011;38763;53.096;6.062;2022-09-12T04:09:49;32.15;;;19.40;;
52898;SDS011;38763;53.096;6.062;2022-09-12T04:12:16;28.90;;;18.73;;
52898;SDS011;38763;53.096;6.062;2022-09-12T04:14:41;30.90;;;20.17;;
52898;SDS011;38763;53.096;6.062;2022-09-12T04:17:07;32.20;;;20.50;;
52898;SDS011;38763;53.096;6.062;2022-09-12T04:19:33;34.88;;;20.92;;
52898;SDS011;38763;53.096;6.062;2022-09-12T04:21:58;33.25;;;20.77;;
52898;SDS011;38763;53.096;6.062;2022-09-12T04:24:24;31.60;;;20.65;;
52898;SDS011;38763;53.096;6.062;2022-09-12T04:26:50;35.10;;;20.48;;
52898;SDS011;38763;53.096;6.062;2022-09-12T04:29:15;34.25;;;21.23;;
52898;SDS011;38763;53.096;6.062;2022-09-12T04:31:41;35.67;;;21.90;;
52898;SDS011;38763;53.096;6.062;2022-09-12T04:34:07;33.83;;;20.67;;
52898;SDS011;38763;53.096;6.062;2022-09-12T04:36:33;34.40;;;21.52;;
52898;SDS011;38763;53.096;6.062;2022-09-12T04:39:00;35.10;;;21.17;;
52898;SDS011;38763;53.096;6.062;2022-09-12T04:41:27;36.38;;;21.60;;
52898;SDS011;38763;53.096;6.062;2022-09-12T04:43:55;34.03;;;20.13;;
52898;SDS011;38763;53.096;6.062;2022-09-12T04:46:24;36.53;;;21.50;;
52898;SDS011;38763;53.096;6.062;2022-09-12T04:48:53;37.72;;;21.30;;
52898;SDS011;38763;53.096;6.062;2022-09-12T04:51:22;37.03;;;22.17;;
52898;SDS011;38763;53.096;6.062;2022-09-12T04:53:52;35.42;;;21.08;;
52898;SDS011;38763;53.096;6.062;2022-09-12T04:56:20;36.95;;;21.48;;
52898;SDS011;38763;53.096;6.062;2022-09-12T04:58:46;36.17;;;21.08;;
52898;SDS011;38763;53.096;6.062;2022-09-12T05:01:13;34.72;;;21.33;;
52898;SDS011;38763;53.096;6.062;2022-09-12T05:03:41;38.10;;;22.10;;
52898;SDS011;38763;53.096;6.062;2022-09-12T05:06:17;35.55;;;22.23;;
52898;SDS011;38763;53.096;6.062;2022-09-12T05:08:44;39.65;;;23.25;;
52898;SDS011;38763;53.096;6.062;2022-09-12T05:11:11;39.10;;;22.85;;
52898;SDS011;38763;53.096;6.062;2022-09-12T05:13:38;35.20;;;22.05;;
52898;SDS011;38763;53.096;6.062;2022-09-12T05:16:04;38.42;;;22.33;;
52898;SDS011;38763;53.096;6.062;2022-09-12T05:18:31;35.78;;;22.35;;
52898;SDS011;38763;53.096;6.062;2022-09-12T05:20:59;37.80;;;23.02;;
52898;SDS011;38763;53.096;6.062;2022-09-12T05:23:26;39.15;;;22.35;;
52898;SDS011;38763;53.096;6.062;2022-09-12T05:25:53;41.03;;;22.58;;
52898;SDS011;38763;53.096;6.062;2022-09-12T05:28:22;40.15;;;23.42;;
52898;SDS011;38763;53.096;6.062;2022-09-12T05:30:58;40.33;;;22.27;;
52898;SDS011;38763;53.096;6.062;2022-09-12T05:33:45;41.15;;;23.60;;
52898;SDS011;38763;53.096;6.062;2022-09-12T05:36:16;37.45;;;21.95;;
52898;SDS011;38763;53.096;6.062;2022-09-12T05:38:48;39.03;;;23.30;;
52898;SDS011;38763;53.096;6.062;2022-09-12T05:41:15;37.88;;;22.17;;
52898;SDS011;38763;53.096;6.062;2022-09-12T05:43:42;38.05;;;22.02;;
52898;SDS011;38763;53.096;6.062;2022-09-12T05:46:13;39.90;;;23.73;;
52898;SDS011;38763;53.096;6.062;2022-09-12T05:48:40;40.00;;;22.60;;
52898;SDS011;38763;53.096;6.062;2022-09-12T05:51:11;37.30;;;22.27;;
52898;SDS011;38763;53.096;6.062;2022-09-12T05:53:46;37.08;;;21.85;;
52898;SDS011;38763;53.096;6.062;2022-09-12T05:56:14;37.63;;;22.25;;
52898;SDS011;38763;53.096;6.062;2022-09-12T05:58:42;40.03;;;22.27;;
52898;SDS011;38763;53.096;6.062;2022-09-12T06:01:10;40.35;;;23.15;;
52898;SDS011;38763;53.096;6.062;2022-09-12T06:03:48;46.85;;;22.63;;
52898;SDS011;38763;53.096;6.062;2022-09-12T06:06:16;41.35;;;23.70;;
52898;SDS011;38763;53.096;6.062;2022-09-12T06:08:47;41.22;;;22.92;;
52898;SDS011;38763;53.096;6.062;2022-09-12T06:11:16;41.85;;;23.40;;
52898;SDS011;38763;53.096;6.062;2022-09-12T06:13:44;42.00;;;23.30;;
52898;SDS011;38763;53.096;6.062;2022-09-12T06:16:18;41.35;;;25.10;;
52898;SDS011;38763;53.096;6.062;2022-09-12T06:18:46;42.75;;;24.23;;
52898;SDS011;38763;53.096;6.062;2022-09-12T06:21:13;43.40;;;25.15;;
52898;SDS011;38763;53.096;6.062;2022-09-12T06:23:39;45.63;;;24.63;;
52898;SDS011;38763;53.096;6.062;2022-09-12T06:26:06;44.60;;;24.83;;
52898;SDS011;38763;53.096;6.062;2022-09-12T06:28:35;46.78;;;25.70;;
52898;SDS011;38763;53.096;6.062;2022-09-12T06:31:03;49.40;;;26.52;;
52898;SDS011;38763;53.096;6.062;2022-09-12T06:33:35;48.57;;;26.20;;
52898;SDS011;38763;53.096;6.062;2022-09-12T06:36:21;48.42;;;26.52;;
52898;SDS011;38763;53.096;6.062;2022-09-12T06:38:52;50.55;;;27.15;;
52898;SDS011;38763;53.096;6.062;2022-09-12T06:41:23;50.70;;;27.00;;
52898;SDS011;38763;53.096;6.062;2022-09-12T06:43:49;55.53;;;28.15;;
52898;SDS011;38763;53.096;6.062;2022-09-12T06:46:15;53.88;;;28.27;;
52898;SDS011;38763;53.096;6.062;2022-09-12T06:48:41;51.72;;;28.23;;
52898;SDS011;38763;53.096;6.062;2022-09-12T06:51:11;57.92;;;29.95;;
52898;SDS011;38763;53.096;6.062;2022-09-12T06:53:39;58.60;;;30.63;;
52898;SDS011;38763;53.096;6.062;2022-09-12T06:56:09;57.70;;;30.75;;
52898;SDS011;38763;53.096;6.062;2022-09-12T06:58:38;55.13;;;31.05;;
52898;SDS011;38763;53.096;6.062;2022-09-12T07:03:31;57.60;;;31.00;;
52898;SDS011;38763;53.096;6.062;2022-09-12T07:06:02;56.22;;;30.17;;
52898;SDS011;38763;53.096;6.062;2022-09-12T07:08:35;58.83;;;31.45;;
52898;SDS011;38763;53.096;6.062;2022-09-12T07:11:12;59.53;;;31.40;;
52898;SDS011;38763;53.096;6.062;2022-09-12T07:13:45;63.08;;;31.08;;
52898;SDS011;38763;53.096;6.062;2022-09-12T07:16:12;62.10;;;32.90;;
52898;SDS011;38763;53.096;6.062;2022-09-12T07:18:38;59.17;;;30.80;;
52898;SDS011;38763;53.096;6.062;2022-09-12T07:21:05;55.47;;;29.90;;
52898;SDS011;38763;53.096;6.062;2022-09-12T07:23:32;56.47;;;30.63;;
52898;SDS011;38763;53.096;6.062;2022-09-12T07:25:59;58.25;;;30.75;;
52898;SDS011;38763;53.096;6.062;2022-09-12T07:28:25;55.22;;;29.88;;
52898;SDS011;38763;53.096;6.062;2022-09-12T07:30:52;56.47;;;31.13;;
52898;SDS011;38763;53.096;6.062;2022-09-12T07:33:22;57.95;;;30.90;;
52898;SDS011;38763;53.096;6.062;2022-09-12T07:35:50;59.85;;;30.98;;
52898;SDS011;38763;53.096;6.062;2022-09-12T07:38:18;57.08;;;31.30;;
52898;SDS011;38763;53.096;6.062;2022-09-12T07:40:44;55.90;;;29.67;;
52898;SDS011;38763;53.096;6.062;2022-09-12T07:43:10;55.35;;;30.15;;
52898;SDS011;38763;53.096;6.062;2022-09-12T07:45:36;57.75;;;30.20;;
52898;SDS011;38763;53.096;6.062;2022-09-12T07:48:01;55.92;;;29.35;;
52898;SDS011;38763;53.096;6.062;2022-09-12T07:50:27;57.83;;;30.02;;
52898;SDS011;38763;53.096;6.062;2022-09-12T07:52:53;61.63;;;29.42;;
52898;SDS011;38763;53.096;6.062;2022-09-12T07:55:19;57.33;;;29.48;;
52898;SDS011;38763;53.096;6.062;2022-09-12T07:57:49;54.42;;;29.30;;
52898;SDS011;38763;53.096;6.062;2022-09-12T08:00:15;55.30;;;30.63;;
52898;SDS011;38763;53.096;6.062;2022-09-12T08:02:41;54.72;;;29.95;;
52898;SDS011;38763;53.096;6.062;2022-09-12T08:05:07;58.30;;;31.83;;
52898;SDS011;38763;53.096;6.062;2022-09-12T08:07:33;54.45;;;31.30;;
52898;SDS011;38763;53.096;6.062;2022-09-12T08:09:58;60.85;;;31.77;;
52898;SDS011;38763;53.096;6.062;2022-09-12T08:12:26;62.80;;;31.77;;
52898;SDS011;38763;53.096;6.062;2022-09-12T08:14:52;59.72;;;31.85;;
52898;SDS011;38763;53.096;6.062;2022-09-12T08:17:17;60.22;;;32.17;;
52898;SDS011;38763;53.096;6.062;2022-09-12T08:19:43;58.28;;;32.88;;
52898;SDS011;38763;53.096;6.062;2022-09-12T08:22:09;57.40;;;33.67;;
52898;SDS011;38763;53.096;6.062;2022-09-12T08:24:35;54.25;;;30.25;;
52898;SDS011;38763;53.096;6.062;2022-09-12T08:27:01;58.33;;;31.77;;
52898;SDS011;38763;53.096;6.062;2022-09-12T08:29:27;53.35;;;31.52;;
52898;SDS011;38763;53.096;6.062;2022-09-12T08:31:53;55.92;;;30.52;;
52898;SDS011;38763;53.096;6.062;2022-09-12T08:34:18;56.47;;;31.73;;
52898;SDS011;38763;53.096;6.062;2022-09-12T08:36:45;56.42;;;31.48;;
52898;SDS011;38763;53.096;6.062;2022-09-12T08:39:11;53.83;;;31.42;;
52898;SDS011;38763;53.096;6.062;2022-09-12T08:41:38;59.70;;;32.58;;
52898;SDS011;38763;53.096;6.062;2022-09-12T08:47:19;61.42;;;33.40;;
52898;SDS011;38763;53.096;6.062;2022-09-12T08:49:56;60.92;;;34.90;;
52898;SDS011;38763;53.096;6.062;2022-09-12T08:54:58;60.42;;;33.15;;
52898;SDS011;38763;53.096;6.062;2022-09-12T08:57:25;60.67;;;33.20;;
52898;SDS011;38763;53.096;6.062;2022-09-12T08:59:51;61.88;;;33.17;;
52898;SDS011;38763;53.096;6.062;2022-09-12T09:04:49;58.38;;;31.48;;
52898;SDS011;38763;53.096;6.062;2022-09-12T09:12:39;63.30;;;32.40;;
52898;SDS011;38763;53.096;6.062;2022-09-12T09:18:14;55.50;;;29.35;;
52898;SDS011;38763;53.096;6.062;2022-09-12T09:28:14;50.85;;;26.52;;
52898;SDS011;38763;53.096;6.062;2022-09-12T09:30:44;48.42;;;25.90;;
52898;SDS011;38763;53.096;6.062;2022-09-12T09:33:14;48.38;;;24.55;;
52898;SDS011;38763;53.096;6.062;2022-09-12T09:35:46;45.30;;;24.52;;
52898;SDS011;38763;53.096;6.062;2022-09-12T09:41:06;43.45;;;22.98;;
52898;SDS011;38763;53.096;6.062;2022-09-12T09:43:50;47.55;;;25.30;;
52898;SDS011;38763;53.096;6.062;2022-09-12T09:46:16;47.50;;;23.42;;
52898;SDS011;38763;53.096;6.062;2022-09-12T09:48:46;45.67;;;23.45;;
52898;SDS011;38763;53.096;6.062;2022-09-12T09:51:15;40.45;;;21.33;;
52898;SDS011;38763;53.096;6.062;2022-09-12T09:53:56;37.03;;;19.60;;
52898;SDS011;38763;53.096;6.062;2022-09-12T09:58:51;39.33;;;20.02;;
52898;SDS011;38763;53.096;6.062;2022-09-12T10:01:17;40.15;;;19.58;;
52898;SDS011;38763;53.096;6.062;2022-09-12T10:03:47;33.60;;;18.10;;
52898;SDS011;38763;53.096;6.062;2022-09-12T10:08:44;36.22;;;20.13;;
52898;SDS011;38763;53.096;6.062;2022-09-12T10:16:30;36.67;;;18.42;;
52898;SDS011;38763;53.096;6.062;2022-09-12T10:18:58;36.75;;;18.05;;
52898;SDS011;38763;53.096;6.062;2022-09-12T10:21:35;31.83;;;17.65;;
52898;SDS011;38763;53.096;6.062;2022-09-12T10:26:50;25.42;;;14.75;;
52898;SDS011;38763;53.096;6.062;2022-09-12T10:29:22;24.10;;;13.98;;
52898;SDS011;38763;53.096;6.062;2022-09-12T10:31:56;27.55;;;15.73;;
52898;SDS011;38763;53.096;6.062;2022-09-12T10:36:58;25.30;;;14.60;;
52898;SDS011;38763;53.096;6.062;2022-09-12T10:39:27;24.20;;;14.15;;
52898;SDS011;38763;53.096;6.062;2022-09-12T10:41:53;26.83;;;15.10;;
52898;SDS011;38763;53.096;6.062;2022-09-12T10:44:23;29.58;;;14.77;;
52898;SDS011;38763;53.096;6.062;2022-09-12T10:46:51;26.67;;;13.10;;
52898;SDS011;38763;53.096;6.062;2022-09-12T10:49:19;23.05;;;12.68;;
52898;SDS011;38763;53.096;6.062;2022-09-12T10:51:48;21.35;;;11.73;;
52898;SDS011;38763;53.096;6.062;2022-09-12T10:54:16;20.70;;;11.35;;
52898;SDS011;38763;53.096;6.062;2022-09-12T10:56:59;22.70;;;12.02;;
52898;SDS011;38763;53.096;6.062;2022-09-12T10:59:58;20.58;;;11.65;;
52898;SDS011;38763;53.096;6.062;2022-09-12T11:07:42;19.98;;;9.85;;
52898;SDS011;38763;53.096;6.062;2022-09-12T11:17:46;22.27;;;11.80;;
52898;SDS011;38763;53.096;6.062;2022-09-12T11:37:45;22.40;;;13.05;;
52898;SDS011;38763;53.096;6.062;2022-09-12T11:42:48;20.95;;;12.13;;
52898;SDS011;38763;53.096;6.062;2022-09-12T11:45:25;20.83;;;11.40;;
52898;SDS011;38763;53.096;6.062;2022-09-12T11:47:57;18.90;;;9.82;;
52898;SDS011;38763;53.096;6.062;2022-09-12T11:50:28;21.52;;;11.40;;
52898;SDS011;38763;53.096;6.062;2022-09-12T11:53:10;19.55;;;11.15;;
52898;SDS011;38763;53.096;6.062;2022-09-12T11:55:51;19.17;;;10.80;;
52898;SDS011;38763;53.096;6.062;2022-09-12T11:58:21;17.00;;;9.68;;
52898;SDS011;38763;53.096;6.062;2022-09-12T12:00:50;18.95;;;10.95;;
52898;SDS011;38763;53.096;6.062;2022-09-12T12:05:56;19.48;;;11.00;;
52898;SDS011;38763;53.096;6.062;2022-09-12T12:08:30;18.42;;;11.77;;
52898;SDS011;38763;53.096;6.062;2022-09-12T12:11:02;17.77;;;10.23;;
52898;SDS011;38763;53.096;6.062;2022-09-12T12:16:13;12.18;;;6.85;;
52898;SDS011;38763;53.096;6.062;2022-09-12T12:18:45;13.48;;;7.88;;
52898;SDS011;38763;53.096;6.062;2022-09-12T12:21:20;12.43;;;7.40;;
52898;SDS011;38763;53.096;6.062;2022-09-12T12:29:35;15.52;;;8.13;;
52898;SDS011;38763;53.096;6.062;2022-09-12T12:34:32;14.70;;;8.05;;
52898;SDS011;38763;53.096;6.062;2022-09-12T12:36:59;12.10;;;7.57;;
52898;SDS011;38763;53.096;6.062;2022-09-12T12:55:27;13.70;;;7.72;;
52898;SDS011;38763;53.096;6.062;2022-09-12T12:58:03;12.05;;;6.65;;
52898;SDS011;38763;53.096;6.062;2022-09-12T13:00:32;11.25;;;7.18;;
52898;SDS011;38763;53.096;6.062;2022-09-12T13:05:41;11.40;;;6.88;;
52898;SDS011;38763;53.096;6.062;2022-09-12T13:10:48;11.30;;;6.82;;
52898;SDS011;38763;53.096;6.062;2022-09-12T13:13:58;10.30;;;6.00;;
52898;SDS011;38763;53.096;6.062;2022-09-12T13:16:11;11.95;;;6.40;;
52898;SDS011;38763;53.096;6.062;2022-09-12T13:19:11;12.73;;;8.18;;
52898;SDS011;38763;53.096;6.062;2022-09-12T13:21:53;12.30;;;7.50;;
52898;SDS011;38763;53.096;6.062;2022-09-12T13:24:45;11.57;;;6.55;;
52898;SDS011;38763;53.096;6.062;2022-09-12T13:27:20;15.95;;;7.38;;
52898;SDS011;38763;53.096;6.062;2022-09-12T13:29:48;13.30;;;7.32;;
52898;SDS011;38763;53.096;6.062;2022-09-12T13:32:14;11.80;;;6.10;;
52898;SDS011;38763;53.096;6.062;2022-09-12T13:37:42;14.00;;;7.05;;
52898;SDS011;38763;53.096;6.062;2022-09-12T13:42:48;13.82;;;7.88;;
52898;SDS011;38763;53.096;6.062;2022-09-12T13:45:25;13.50;;;9.07;;
52898;SDS011;38763;53.096;6.062;2022-09-12T13:47:52;13.07;;;8.50;;
52898;SDS011;38763;53.096;6.062;2022-09-12T13:50:23;11.05;;;6.85;;
52898;SDS011;38763;53.096;6.062;2022-09-12T13:52:51;12.40;;;6.00;;
52898;SDS011;38763;53.096;6.062;2022-09-12T13:55:23;9.25;;;5.45;;
52898;SDS011;38763;53.096;6.062;2022-09-12T13:57:59;8.63;;;5.40;;
52898;SDS011;38763;53.096;6.062;2022-09-12T14:00:27;9.07;;;5.68;;
52898;SDS011;38763;53.096;6.062;2022-09-12T14:02:56;9.88;;;5.65;;
52898;SDS011;38763;53.096;6.062;2022-09-12T14:06:00;9.55;;;5.55;;
52898;SDS011;38763;53.096;6.062;2022-09-12T14:08:27;8.70;;;5.70;;
52898;SDS011;38763;53.096;6.062;2022-09-12T14:10:53;8.43;;;5.00;;
52898;SDS011;38763;53.096;6.062;2022-09-12T14:13:19;8.40;;;4.22;;
52898;SDS011;38763;53.096;6.062;2022-09-12T14:15:50;6.70;;;3.72;;
52898;SDS011;38763;53.096;6.062;2022-09-12T14:20:51;8.52;;;3.90;;
52898;SDS011;38763;53.096;6.062;2022-09-12T14:25:52;7.30;;;3.67;;
52898;SDS011;38763;53.096;6.062;2022-09-12T14:28:19;7.32;;;4.25;;
52898;SDS011;38763;53.096;6.062;2022-09-12T14:31:04;6.75;;;3.60;;
52898;SDS011;38763;53.096;6.062;2022-09-12T14:34:36;8.18;;;4.30;;
52898;SDS011;38763;53.096;6.062;2022-09-12T14:42:15;7.85;;;3.95;;
52898;SDS011;38763;53.096;6.062;2022-09-12T14:44:51;7.25;;;4.40;;
52898;SDS011;38763;53.096;6.062;2022-09-12T14:47:27;8.43;;;3.95;;
52898;SDS011;38763;53.096;6.062;2022-09-12T14:49:59;9.13;;;3.70;;
52898;SDS011;38763;53.096;6.062;2022-09-12T14:52:26;5.75;;;3.42;;
52898;SDS011;38763;53.096;6.062;2022-09-12T14:55:00;8.23;;;4.50;;
52898;SDS011;38763;53.096;6.062;2022-09-12T14:57:47;10.60;;;3.70;;
52898;SDS011;38763;53.096;6.062;2022-09-12T15:00:36;8.10;;;3.60;;
52898;SDS011;38763;53.096;6.062;2022-09-12T15:03:18;5.93;;;3.67;;
52898;SDS011;38763;53.096;6.062;2022-09-12T15:05:49;6.70;;;4.20;;
52898;SDS011;38763;53.096;6.062;2022-09-12T15:08:15;7.03;;;3.72;;
52898;SDS011;38763;53.096;6.062;2022-09-12T15:10:40;7.32;;;4.25;;
52898;SDS011;38763;53.096;6.062;2022-09-12T15:15:41;6.88;;;4.30;;
52898;SDS011;38763;53.096;6.062;2022-09-12T15:18:08;8.88;;;4.28;;
52898;SDS011;38763;53.096;6.062;2022-09-12T15:20:35;7.65;;;4.80;;
52898;SDS011;38763;53.096;6.062;2022-09-12T15:23:03;6.70;;;4.05;;
52898;SDS011;38763;53.096;6.062;2022-09-12T15:25:30;8.32;;;4.78;;
52898;SDS011;38763;53.096;6.062;2022-09-12T15:27:56;7.95;;;4.60;;
52898;SDS011;38763;53.096;6.062;2022-09-12T15:30:21;10.10;;;5.43;;
52898;SDS011;38763;53.096;6.062;2022-09-12T15:32:47;9.43;;;5.53;;
52898;SDS011;38763;53.096;6.062;2022-09-12T15:35:17;9.73;;;5.95;;
52898;SDS011;38763;53.096;6.062;2022-09-12T15:40:11;8.60;;;4.85;;
52898;SDS011;38763;53.096;6.062;2022-09-12T15:42:37;10.70;;;5.72;;
52898;SDS011;38763;53.096;6.062;2022-09-12T15:45:36;9.02;;;5.60;;
52898;SDS011;38763;53.096;6.062;2022-09-12T15:47:56;9.93;;;5.55;;
52898;SDS011;38763;53.096;6.062;2022-09-12T15:50:22;10.05;;;5.90;;
52898;SDS011;38763;53.096;6.062;2022-09-12T15:52:48;9.38;;;5.70;;
52898;SDS011;38763;53.096;6.062;2022-09-12T15:55:18;9.55;;;5.55;;
52898;SDS011;38763;53.096;6.062;2022-09-12T15:57:46;10.07;;;6.28;;
52898;SDS011;38763;53.096;6.062;2022-09-12T16:00:13;15.30;;;6.60;;
52898;SDS011;38763;53.096;6.062;2022-09-12T16:02:40;13.07;;;6.82;;
52898;SDS011;38763;53.096;6.062;2022-09-12T16:05:06;13.68;;;7.40;;
52898;SDS011;38763;53.096;6.062;2022-09-12T16:07:40;11.32;;;7.20;;
52898;SDS011;38763;53.096;6.062;2022-09-12T16:10:08;10.38;;;6.85;;
52898;SDS011;38763;53.096;6.062;2022-09-12T16:12:38;12.13;;;7.82;;
52898;SDS011;38763;53.096;6.062;2022-09-12T16:15:04;12.88;;;8.18;;
52898;SDS011;38763;53.096;6.062;2022-09-12T16:17:30;10.35;;;7.05;;
52898;SDS011;38763;53.096;6.062;2022-09-12T16:19:56;11.38;;;7.60;;
52898;SDS011;38763;53.096;6.062;2022-09-12T16:22:21;12.52;;;7.72;;
52898;SDS011;38763;53.096;6.062;2022-09-12T16:24:47;11.13;;;7.07;;
52898;SDS011;38763;53.096;6.062;2022-09-12T16:27:12;10.52;;;7.13;;
52898;SDS011;38763;53.096;6.062;2022-09-12T16:29:38;13.98;;;8.02;;
52898;SDS011;38763;53.096;6.062;2022-09-12T16:32:04;12.98;;;8.18;;
52898;SDS011;38763;53.096;6.062;2022-09-12T16:34:30;11.82;;;7.00;;
52898;SDS011;38763;53.096;6.062;2022-09-12T16:36:55;13.73;;;7.57;;
52898;SDS011;38763;53.096;6.062;2022-09-12T16:39:21;12.50;;;7.45;;
52898;SDS011;38763;53.096;6.062;2022-09-12T16:41:46;11.13;;;6.82;;
52898;SDS011;38763;53.096;6.062;2022-09-12T16:44:12;13.90;;;8.05;;
52898;SDS011;38763;53.096;6.062;2022-09-12T16:46:37;15.25;;;9.57;;
52898;SDS011;38763;53.096;6.062;2022-09-12T16:49:03;15.07;;;9.45;;
52898;SDS011;38763;53.096;6.062;2022-09-12T16:51:31;15.63;;;9.93;;
52898;SDS011;38763;53.096;6.062;2022-09-12T16:54:00;16.98;;;11.10;;
52898;SDS011;38763;53.096;6.062;2022-09-12T16:56:26;15.20;;;10.00;;
52898;SDS011;38763;53.096;6.062;2022-09-12T16:58:52;15.32;;;9.88;;
52898;SDS011;38763;53.096;6.062;2022-09-12T17:01:19;14.43;;;9.65;;
52898;SDS011;38763;53.096;6.062;2022-09-12T17:03:55;14.27;;;9.02;;
52898;SDS011;38763;53.096;6.062;2022-09-12T17:06:22;15.32;;;9.98;;
52898;SDS011;38763;53.096;6.062;2022-09-12T17:08:50;16.15;;;10.45;;
52898;SDS011;38763;53.096;6.062;2022-09-12T17:11:18;13.57;;;9.25;;
52898;SDS011;38763;53.096;6.062;2022-09-12T17:13:52;17.70;;;10.65;;
52898;SDS011;38763;53.096;6.062;2022-09-12T17:16:19;14.57;;;9.90;;
52898;SDS011;38763;53.096;6.062;2022-09-12T17:18:46;16.48;;;10.50;;
52898;SDS011;38763;53.096;6.062;2022-09-12T17:21:12;15.18;;;10.15;;
52898;SDS011;38763;53.096;6.062;2022-09-12T17:23:38;14.15;;;9.73;;
52898;SDS011;38763;53.096;6.062;2022-09-12T17:26:05;16.08;;;9.75;;
52898;SDS011;38763;53.096;6.062;2022-09-12T17:28:31;15.65;;;10.60;;
52898;SDS011;38763;53.096;6.062;2022-09-12T17:30:58;15.82;;;10.32;;
52898;SDS011;38763;53.096;6.062;2022-09-12T17:33:25;15.52;;;9.70;;
52898;SDS011;38763;53.096;6.062;2022-09-12T17:35:52;15.65;;;9.85;;
52898;SDS011;38763;53.096;6.062;2022-09-12T17:38:18;16.58;;;9.88;;
52898;SDS011;38763;53.096;6.062;2022-09-12T17:40:44;14.73;;;10.30;;
52898;SDS011;38763;53.096;6.062;2022-09-12T17:43:10;16.45;;;10.45;;